Time;durP1;ratioP1;P1;durP2;ratioP2;P2;SDS_P1;SDS_P2;PMS_P1;PMS_P2;Temp;Humidity;BMP_temperature;BMP_pressure;BME280_temperature;BME280_humidity;BME280_pressure;Samples;Min_cycle;Max_cycle;Signal;HPM_P1;HPM_P2
2021/05/18 00:02:17;;;;;;;2.47;1.70;;;;;;;;;;5107936;28;20506;-77
2021/05/18 00:05:02;;;;;;;3.00;1.58;;;;;;;;;;5108373;28;20113;-77
2021/05/18 00:07:57;;;;;;;3.70;1.60;;;;;;;;;;5105711;28;20590;-78
2021/05/18 00:13:51;;;;;;;2.65;1.90;;;;;;;;;;5104435;28;20038;-78
2021/05/18 00:16:36;;;;;;;2.58;1.70;;;;;;;;;;5081299;28;20114;-78
2021/05/18 00:19:20;;;;;;;2.53;1.70;;;;;;;;;;5094614;28;20055;-78
2021/05/18 00:22:05;;;;;;;3.17;1.60;;;;;;;;;;5099448;28;20045;-78
2021/05/18 00:24:50;;;;;;;2.45;1.60;;;;;;;;;;5103043;28;20035;-78
2021/05/18 00:27:37;;;;;;;3.42;1.73;;;;;;;;;;5108268;28;20136;-76
2021/05/18 00:30:22;;;;;;;2.50;1.50;;;;;;;;;;5106927;28;20758;-78
2021/05/18 00:33:08;;;;;;;2.10;1.30;;;;;;;;;;5108596;28;20572;-77
2021/05/18 00:35:53;;;;;;;1.88;1.42;;;;;;;;;;5108863;28;20156;-78
2021/05/18 00:38:37;;;;;;;2.55;1.70;;;;;;;;;;5104031;28;20165;-78
2021/05/18 00:41:22;;;;;;;2.28;1.77;;;;;;;;;;5109307;28;20453;-77
2021/05/18 00:44:06;;;;;;;2.35;1.45;;;;;;;;;;5108923;28;20080;-78
2021/05/18 00:46:51;;;;;;;2.85;1.60;;;;;;;;;;5107034;28;20087;-78
2021/05/18 00:49:36;;;;;;;3.00;1.67;;;;;;;;;;5108717;28;20467;-78
2021/05/18 00:52:21;;;;;;;2.47;1.45;;;;;;;;;;5108417;28;20792;-78
2021/05/18 00:55:09;;;;;;;4.03;1.40;;;;;;;;;;5107345;28;20042;-78
2021/05/18 01:00:58;;;;;;;2.42;1.50;;;;;;;;;;5108626;28;20108;-77
2021/05/18 01:03:43;;;;;;;3.38;1.58;;;;;;;;;;5108226;28;20065;-78
2021/05/18 01:06:29;;;;;;;3.03;1.42;;;;;;;;;;5107332;28;20096;-78
2021/05/18 01:09:14;;;;;;;2.35;1.45;;;;;;;;;;5108441;28;20173;-78
2021/05/18 01:11:58;;;;;;;3.72;1.50;;;;;;;;;;5108850;28;20039;-77
2021/05/18 01:14:43;;;;;;;3.40;1.65;;;;;;;;;;5107443;28;20184;-78
2021/05/18 01:17:27;;;;;;;2.28;1.50;;;;;;;;;;5107937;28;20046;-78
2021/05/18 01:20:12;;;;;;;2.20;1.40;;;;;;;;;;5108444;28;20067;-77
2021/05/18 01:22:57;;;;;;;2.40;1.40;;;;;;;;;;5105812;28;20043;-77
2021/05/18 01:25:41;;;;;;;2.85;1.55;;;;;;;;;;5106861;28;20081;-78
2021/05/18 01:28:26;;;;;;;2.63;1.30;;;;;;;;;;5106907;28;20063;-77
2021/05/18 01:31:13;;;;;;;2.17;1.33;;;;;;;;;;5108684;28;20451;-77
2021/05/18 01:33:57;;;;;;;2.70;1.35;;;;;;;;;;5108110;28;20383;-77
2021/05/18 01:36:42;;;;;;;2.83;1.38;;;;;;;;;;5107258;28;20278;-78
2021/05/18 01:39:56;;;;;;;2.38;1.63;;;;;;;;;;5104995;28;20217;-77
2021/05/18 01:42:48;;;;;;;3.25;2.08;;;;;;;;;;5087325;28;20046;-77
2021/05/18 01:45:32;;;;;;;1.92;1.33;;;;;;;;;;5107145;28;20065;-77
2021/05/18 01:48:17;;;;;;;2.28;1.25;;;;;;;;;;5108320;28;20050;-78
2021/05/18 01:51:02;;;;;;;2.03;1.23;;;;;;;;;;5109195;28;20103;-78
2021/05/18 01:53:47;;;;;;;2.83;1.40;;;;;;;;;;5105781;28;20043;-77
2021/05/18 01:59:29;;;;;;;2.45;1.42;;;;;;;;;;5104104;28;20119;-77
2021/05/18 02:02:13;;;;;;;2.42;1.30;;;;;;;;;;5107012;28;20051;-77
2021/05/18 02:05:00;;;;;;;2.25;1.30;;;;;;;;;;5108159;28;20087;-78
2021/05/18 02:07:45;;;;;;;3.13;1.30;;;;;;;;;;5107037;28;20151;-77
2021/05/18 02:10:30;;;;;;;2.10;1.25;;;;;;;;;;5107042;28;20050;-77
2021/05/18 02:13:15;;;;;;;1.85;1.40;;;;;;;;;;5108967;28;20033;-77
2021/05/18 02:16:06;;;;;;;3.67;1.77;;;;;;;;;;5108936;28;20180;-77
2021/05/18 02:25:04;;;;;;;2.20;1.30;;;;;;;;;;5106563;28;20171;-77
2021/05/18 02:27:49;;;;;;;2.08;1.20;;;;;;;;;;5107853;28;20042;-77
2021/05/18 02:30:33;;;;;;;2.42;1.40;;;;;;;;;;5084522;28;20070;-77
2021/05/18 02:33:18;;;;;;;2.08;1.20;;;;;;;;;;5092333;28;20067;-77
2021/05/18 02:36:02;;;;;;;2.10;1.20;;;;;;;;;;5107297;28;20034;-77
2021/05/18 02:38:47;;;;;;;2.45;1.30;;;;;;;;;;5104215;28;20433;-76
2021/05/18 02:41:32;;;;;;;2.67;1.40;;;;;;;;;;5100570;28;20046;-77
2021/05/18 02:44:27;;;;;;;3.78;1.10;;;;;;;;;;5106687;28;20095;-77
2021/05/18 02:50:16;;;;;;;1.85;1.17;;;;;;;;;;5108291;28;20108;-77
2021/05/18 02:53:00;;;;;;;2.35;1.40;;;;;;;;;;5106430;28;20526;-77
2021/05/18 02:58:41;;;;;;;2.17;1.30;;;;;;;;;;5099117;28;20054;-78
2021/05/18 03:01:26;;;;;;;2.20;1.05;;;;;;;;;;5108295;28;20694;-77
2021/05/18 03:04:10;;;;;;;2.38;1.38;;;;;;;;;;5108439;28;20088;-77
2021/05/18 03:06:55;;;;;;;2.40;1.48;;;;;;;;;;5107696;28;20109;-77
2021/05/18 03:09:40;;;;;;;2.08;1.13;;;;;;;;;;5100628;28;20046;-77
2021/05/18 03:12:24;;;;;;;2.60;1.33;;;;;;;;;;5108141;28;20038;-77
2021/05/18 03:15:09;;;;;;;1.95;1.30;;;;;;;;;;5108571;28;20484;-78
2021/05/18 03:17:54;;;;;;;1.63;1.10;;;;;;;;;;5111109;28;20054;-77
2021/05/18 03:20:38;;;;;;;1.75;1.10;;;;;;;;;;5111445;28;20050;-77
2021/05/18 03:23:23;;;;;;;3.00;1.40;;;;;;;;;;5111645;28;20065;-78
2021/05/18 03:26:08;;;;;;;1.88;1.20;;;;;;;;;;5111986;28;20085;-77
2021/05/18 03:28:59;;;;;;;2.65;1.10;;;;;;;;;;5110010;28;20486;-78
2021/05/18 03:34:47;;;;;;;1.67;1.02;;;;;;;;;;5101466;28;20130;-77
2021/05/18 03:37:45;;;;;;;1.80;1.25;;;;;;;;;;5111342;28;20081;-78
2021/05/18 03:40:30;;;;;;;1.75;1.17;;;;;;;;;;5111307;28;20533;-78
2021/05/18 03:52:23;;;;;;;2.42;1.00;;;;;;;;;;5110854;28;20034;-78
2021/05/18 03:58:35;;;;;;;1.42;1.08;;;;;;;;;;5111025;28;20060;-77
2021/05/18 04:04:25;;;;;;;1.70;1.20;;;;;;;;;;5107522;28;20042;-78
2021/05/18 04:19:09;;;;;;;1.48;1.10;;;;;;;;;;5110449;28;20058;-77
2021/05/18 04:22:23;;;;;;;2.88;1.17;;;;;;;;;;5109852;28;20613;-78
2021/05/18 04:52:47;;;;;;;4.07;1.73;;;;;;;;;;5109291;28;20047;-77
2021/05/18 04:59:28;;;;;;;2.65;1.15;;;;;;;;;;5108889;28;21099;-77
2021/05/18 05:07:28;;;;;;;2.05;1.30;;;;;;;;;;5109805;28;20042;-77
2021/05/18 05:10:13;;;;;;;2.30;1.42;;;;;;;;;;5108316;28;20050;-77
2021/05/18 05:15:55;;;;;;;1.98;1.30;;;;;;;;;;5108449;28;20050;-77
2021/05/18 05:18:39;;;;;;;1.83;1.02;;;;;;;;;;5108061;28;20100;-77
2021/05/18 05:21:29;;;;;;;1.95;1.13;;;;;;;;;;5109361;28;20058;-77
2021/05/18 05:24:13;;;;;;;1.98;1.20;;;;;;;;;;5088556;28;20038;-78
2021/05/18 05:26:58;;;;;;;1.70;1.20;;;;;;;;;;5102020;28;20128;-77
2021/05/18 05:29:42;;;;;;;2.10;1.33;;;;;;;;;;5109256;28;20058;-78
2021/05/18 05:32:27;;;;;;;2.55;1.40;;;;;;;;;;5108233;28;20116;-77
2021/05/18 05:35:12;;;;;;;2.85;1.40;;;;;;;;;;5109082;28;20050;-78
2021/05/18 05:37:57;;;;;;;2.35;1.20;;;;;;;;;;5109185;28;20076;-78
2021/05/18 05:40:42;;;;;;;1.95;1.17;;;;;;;;;;5109257;28;20061;-78
2021/05/18 05:43:26;;;;;;;1.90;1.08;;;;;;;;;;5100269;28;20556;-78
2021/05/18 05:46:11;;;;;;;2.03;1.23;;;;;;;;;;5109236;28;20060;-78
2021/05/18 05:48:55;;;;;;;2.97;1.10;;;;;;;;;;5108502;28;20050;-78
2021/05/18 05:51:40;;;;;;;2.15;1.08;;;;;;;;;;5107777;28;20074;-78
2021/05/18 05:54:25;;;;;;;1.77;1.20;;;;;;;;;;5108356;28;20050;-78
2021/05/18 05:57:10;;;;;;;2.08;1.10;;;;;;;;;;5107593;28;20498;-78
2021/05/18 05:59:54;;;;;;;2.35;1.48;;;;;;;;;;5107607;28;20672;-78
2021/05/18 06:02:39;;;;;;;1.67;1.20;;;;;;;;;;5107820;28;20158;-78
2021/05/18 06:05:23;;;;;;;1.70;1.10;;;;;;;;;;5108240;28;20532;-78
2021/05/18 06:08:08;;;;;;;1.85;1.38;;;;;;;;;;5105671;28;20057;-78
2021/05/18 06:10:59;;;;;;;2.88;1.50;;;;;;;;;;5106557;28;20031;-78
2021/05/18 06:14:06;;;;;;;2.17;1.48;;;;;;;;;;5108242;28;20097;-78
2021/05/18 06:49:39;;;;;;;2.75;1.30;;;;;;;;;;5106654;28;20051;-77
2021/05/18 06:52:23;;;;;;;2.90;1.27;;;;;;;;;;5111281;28;20089;-78
2021/05/18 06:55:09;;;;;;;4.22;1.20;;;;;;;;;;5111370;28;20042;-78
2021/05/18 06:58:01;;;;;;;2.47;1.23;;;;;;;;;;5110660;28;20055;-78
2021/05/18 07:00:46;;;;;;;2.77;1.10;;;;;;;;;;5110771;28;20419;-78
2021/05/18 07:03:36;;;;;;;5.10;1.27;;;;;;;;;;5091306;28;20085;-78
2021/05/18 07:09:25;;;;;;;2.80;1.17;;;;;;;;;;5110950;28;20148;-78
2021/05/18 07:12:10;;;;;;;3.30;1.30;;;;;;;;;;5110089;28;20395;-78
2021/05/18 07:14:58;;;;;;;2.28;1.08;;;;;;;;;;5110568;28;20046;-78
2021/05/18 07:17:43;;;;;;;3.65;1.00;;;;;;;;;;5110170;28;20457;-78
2021/05/18 07:20:29;;;;;;;2.67;1.10;;;;;;;;;;5110519;28;20147;-78
2021/05/18 07:23:17;;;;;;;2.55;1.17;;;;;;;;;;5108921;28;20042;-78
2021/05/18 07:26:03;;;;;;;2.72;1.10;;;;;;;;;;5110840;28;20087;-77
2021/05/18 07:28:47;;;;;;;2.15;1.20;;;;;;;;;;5110282;28;20094;-77
2021/05/18 07:31:32;;;;;;;3.17;1.10;;;;;;;;;;5110690;28;20089;-78
2021/05/18 07:34:17;;;;;;;1.92;1.10;;;;;;;;;;5110880;28;20042;-78
2021/05/18 07:37:02;;;;;;;2.50;1.30;;;;;;;;;;5108864;28;20077;-77
2021/05/18 07:39:46;;;;;;;2.30;1.20;;;;;;;;;;5107407;28;20039;-78
2021/05/18 07:42:31;;;;;;;2.45;1.15;;;;;;;;;;5109557;28;20127;-78
2021/05/18 07:45:15;;;;;;;2.78;1.00;;;;;;;;;;5109134;28;20073;-78
2021/05/18 07:48:10;;;;;;;2.40;1.23;;;;;;;;;;5109934;28;20403;-78
2021/05/18 07:59:52;;;;;;;2.63;1.15;;;;;;;;;;5109962;28;20092;-78
2021/05/18 08:05:43;;;;;;;3.97;1.13;;;;;;;;;;5110254;28;20096;-78
2021/05/18 08:08:27;;;;;;;2.72;1.00;;;;;;;;;;5107995;28;20126;-77
2021/05/18 08:11:12;;;;;;;1.90;1.10;;;;;;;;;;5105821;28;20038;-77
2021/05/18 08:13:58;;;;;;;2.72;1.10;;;;;;;;;;5098516;28;20105;-78
2021/05/18 08:20:06;;;;;;;3.40;1.45;;;;;;;;;;5109368;28;20144;-77
2021/05/18 10:36:46;;;;;;;1.77;0.90;;;;;;;;;;5110154;28;20051;-74
2021/05/18 10:39:30;;;;;;;1.23;0.80;;;;;;;;;;5108767;28;20108;-74
2021/05/18 10:42:15;;;;;;;2.63;1.20;;;;;;;;;;5093099;28;20539;-75
2021/05/18 10:45:00;;;;;;;2.40;0.98;;;;;;;;;;5093294;28;20625;-75
2021/05/18 10:47:45;;;;;;;1.75;0.85;;;;;;;;;;5094220;28;20050;-74
2021/05/18 10:50:42;;;;;;;1.60;1.00;;;;;;;;;;5100632;28;20104;-75
2021/05/18 10:53:27;;;;;;;1.20;0.80;;;;;;;;;;5109549;28;20385;-75
2021/05/18 10:56:11;;;;;;;2.20;0.98;;;;;;;;;;5110445;28;20038;-75
2021/05/18 10:58:56;;;;;;;2.08;0.80;;;;;;;;;;5110660;28;20031;-75
2021/05/18 11:01:41;;;;;;;1.15;0.73;;;;;;;;;;5107561;28;20078;-75
2021/05/18 11:04:26;;;;;;;1.60;0.90;;;;;;;;;;5107825;28;20046;-75
2021/05/18 11:07:11;;;;;;;1.70;0.80;;;;;;;;;;5097191;28;20104;-75
2021/05/18 11:09:56;;;;;;;2.83;0.82;;;;;;;;;;5108662;28;20047;-75
2021/05/18 11:12:40;;;;;;;2.03;1.00;;;;;;;;;;5109157;28;20074;-75
2021/05/18 11:15:25;;;;;;;1.48;0.90;;;;;;;;;;5110302;28;20503;-75
2021/05/18 11:18:10;;;;;;;0.98;0.80;;;;;;;;;;5107008;28;20060;-75
2021/05/18 11:21:07;;;;;;;1.88;1.00;;;;;;;;;;5110112;28;20176;-75
2021/05/18 11:23:51;;;;;;;2.35;1.10;;;;;;;;;;5089937;28;20078;-75
2021/05/18 11:26:46;;;;;;;1.35;0.82;;;;;;;;;;5103780;28;20042;-75
2021/05/18 11:29:40;;;;;;;1.20;0.85;;;;;;;;;;5111179;28;20054;-75
2021/05/18 11:32:25;;;;;;;2.08;0.90;;;;;;;;;;5106283;28;20030;-75
2021/05/18 11:35:10;;;;;;;1.33;0.80;;;;;;;;;;5086503;28;20403;-75
2021/05/18 11:38:01;;;;;;;1.60;0.90;;;;;;;;;;5094545;28;20097;-74
2021/05/18 11:40:50;;;;;;;1.20;0.80;;;;;;;;;;5095715;28;20439;-75
2021/05/18 11:43:37;;;;;;;1.83;0.90;;;;;;;;;;5093582;28;20045;-76
2021/05/18 11:46:22;;;;;;;2.33;1.00;;;;;;;;;;5094130;28;20035;-75
2021/05/18 11:49:08;;;;;;;1.33;0.90;;;;;;;;;;5095249;28;20439;-75
2021/05/18 11:51:53;;;;;;;1.60;1.00;;;;;;;;;;5107666;28;20479;-75
2021/05/18 11:54:39;;;;;;;1.42;0.70;;;;;;;;;;5090309;28;20038;-76
2021/05/18 11:57:24;;;;;;;1.65;1.05;;;;;;;;;;5104815;28;20494;-76
2021/05/18 12:00:17;;;;;;;1.25;0.80;;;;;;;;;;5108013;28;20069;-76
2021/05/18 12:03:12;;;;;;;1.90;0.90;;;;;;;;;;5108930;28;20077;-76
2021/05/18 12:05:57;;;;;;;2.80;0.90;;;;;;;;;;5109702;28;20046;-76
2021/05/18 12:08:41;;;;;;;2.42;0.88;;;;;;;;;;5107192;28;20450;-76
2021/05/18 12:11:26;;;;;;;4.00;0.88;;;;;;;;;;5107995;28;20458;-75
2021/05/18 12:14:11;;;;;;;1.50;0.90;;;;;;;;;;5110363;28;20044;-76
2021/05/18 12:16:55;;;;;;;1.50;1.00;;;;;;;;;;5109037;28;20088;-75
2021/05/18 12:19:40;;;;;;;2.05;0.93;;;;;;;;;;5108664;28;20104;-79
2021/05/18 12:22:25;;;;;;;2.42;0.93;;;;;;;;;;5107602;28;20038;-79
2021/05/18 12:25:10;;;;;;;3.03;1.25;;;;;;;;;;5108117;28;20073;-79
2021/05/18 12:27:56;;;;;;;1.15;1.00;;;;;;;;;;5089087;28;20066;-79
2021/05/18 12:30:43;;;;;;;2.45;0.93;;;;;;;;;;5105690;28;20287;-78
2021/05/18 12:33:35;;;;;;;2.53;0.98;;;;;;;;;;5103355;28;20058;-78
2021/05/18 12:36:19;;;;;;;2.67;1.00;;;;;;;;;;5108196;28;20038;-78
2021/05/18 12:39:08;;;;;;;2.20;1.00;;;;;;;;;;5109049;28;20070;-78
2021/05/18 12:42:00;;;;;;;1.75;1.25;;;;;;;;;;5108721;28;20034;-78
2021/05/18 12:44:49;;;;;;;1.10;0.88;;;;;;;;;;5107650;28;20050;-78
2021/05/18 12:47:35;;;;;;;2.15;1.00;;;;;;;;;;5107409;28;20127;-78
2021/05/18 12:50:20;;;;;;;2.28;1.08;;;;;;;;;;5109360;28;20054;-78
2021/05/18 12:53:06;;;;;;;2.58;1.10;;;;;;;;;;5107484;28;20034;-78
2021/05/18 12:55:51;;;;;;;1.80;1.10;;;;;;;;;;5104509;28;20509;-78
2021/05/18 12:58:36;;;;;;;2.35;1.00;;;;;;;;;;5108920;28;20054;-78
2021/05/18 13:01:21;;;;;;;1.80;0.90;;;;;;;;;;5107624;28;20058;-78
2021/05/18 13:04:09;;;;;;;3.15;1.10;;;;;;;;;;5103761;28;20457;-78
2021/05/18 13:06:56;;;;;;;2.40;1.00;;;;;;;;;;5105526;28;20089;-78
2021/05/18 13:09:41;;;;;;;2.13;0.93;;;;;;;;;;5107276;28;20096;-78
2021/05/18 13:12:26;;;;;;;2.15;0.90;;;;;;;;;;5106779;28;20146;-78
2021/05/18 13:15:11;;;;;;;1.63;1.30;;;;;;;;;;5107815;28;20150;-79
2021/05/18 13:17:57;;;;;;;1.98;0.95;;;;;;;;;;5109085;28;20427;-78
2021/05/18 13:20:43;;;;;;;1.88;1.02;;;;;;;;;;5105425;28;20147;-78
2021/05/18 13:23:31;;;;;;;1.88;1.27;;;;;;;;;;5087138;28;20050;-78
2021/05/18 13:26:26;;;;;;;1.50;0.80;;;;;;;;;;5089483;28;20171;-77
2021/05/18 13:29:20;;;;;;;2.30;0.80;;;;;;;;;;5090631;28;20156;-83
2021/05/18 13:32:05;;;;;;;1.35;0.90;;;;;;;;;;5095772;28;20034;-80
2021/05/18 13:34:50;;;;;;;2.15;0.95;;;;;;;;;;5100184;28;20035;-79
2021/05/18 13:37:35;;;;;;;1.48;1.05;;;;;;;;;;5104634;28;20038;-76
2021/05/18 13:40:20;;;;;;;1.67;1.23;;;;;;;;;;5100332;28;20120;-76
2021/05/18 13:43:05;;;;;;;1.95;1.08;;;;;;;;;;5098716;28;20524;-80
2021/05/18 13:45:50;;;;;;;1.85;1.00;;;;;;;;;;5107058;28;20046;-80
2021/05/18 13:48:34;;;;;;;1.38;0.80;;;;;;;;;;5107690;28;20065;-80
2021/05/18 13:51:19;;;;;;;3.25;1.00;;;;;;;;;;5107555;28;20108;-80
2021/05/18 13:54:03;;;;;;;2.97;1.08;;;;;;;;;;5108031;28;20510;-79
2021/05/18 13:56:48;;;;;;;1.88;1.08;;;;;;;;;;5106155;28;20503;-80
2021/05/18 13:59:33;;;;;;;3.15;1.30;;;;;;;;;;5104890;28;20119;-81
2021/05/18 14:02:18;;;;;;;1.02;0.88;;;;;;;;;;5106123;28;20087;-81
2021/05/18 14:05:03;;;;;;;0.80;0.73;;;;;;;;;;5092389;28;20078;-81
2021/05/18 14:10:57;;;;;;;2.55;1.08;;;;;;;;;;5099505;28;20062;-79
2021/05/18 14:13:43;;;;;;;1.85;0.93;;;;;;;;;;5107708;28;20050;-81
2021/05/18 14:16:27;;;;;;;1.90;1.00;;;;;;;;;;5105894;28;20113;-81
2021/05/18 14:19:12;;;;;;;1.10;0.88;;;;;;;;;;5106339;28;20124;-81
2021/05/18 14:21:57;;;;;;;2.10;1.10;;;;;;;;;;5100803;28;20091;-80
2021/05/18 14:24:57;;;;;;;1.77;1.00;;;;;;;;;;5107862;28;20080;-82
2021/05/18 14:27:43;;;;;;;1.73;1.00;;;;;;;;;;5101321;28;20597;-83
2021/05/18 14:30:28;;;;;;;1.27;0.80;;;;;;;;;;5097889;28;20486;-82
2021/05/18 14:33:12;;;;;;;1.25;0.93;;;;;;;;;;5103849;28;20059;-82
2021/05/18 14:35:57;;;;;;;1.60;1.10;;;;;;;;;;5106070;28;20050;-83
2021/05/18 14:38:43;;;;;;;1.35;1.00;;;;;;;;;;5086520;28;20104;-77
2021/05/18 14:42:51;;;;;;;2.08;1.00;;;;;;;;;;5103988;28;20038;-77
2021/05/18 14:44:33;;;;;;;2.00;1.00;;;;;;;;;;5099136;28;20050;-77
2021/05/18 14:47:22;;;;;;;1.67;1.00;;;;;;;;;;5102196;28;20411;-77
2021/05/18 14:56:31;;;;;;;3.05;0.98;;;;;;;;;;5061179;28;20055;-76
2021/05/18 14:59:16;;;;;;;2.03;1.10;;;;;;;;;;5102603;28;20104;-76
2021/05/18 15:02:01;;;;;;;4.57;0.95;;;;;;;;;;5102773;28;20731;-76
2021/05/18 15:04:46;;;;;;;2.88;1.00;;;;;;;;;;5104840;28;20062;-79
2021/05/18 15:07:30;;;;;;;2.20;0.95;;;;;;;;;;5097685;28;20042;-77
2021/05/18 15:10:15;;;;;;;2.10;0.90;;;;;;;;;;5105761;28;20522;-78
2021/05/18 15:12:59;;;;;;;1.30;0.98;;;;;;;;;;5105827;28;20030;-80
2021/05/18 15:15:44;;;;;;;3.58;1.10;;;;;;;;;;5103256;28;20034;-79
2021/05/18 15:18:31;;;;;;;2.53;1.25;;;;;;;;;;5095915;28;20038;-75
2021/05/18 15:21:16;;;;;;;2.22;1.00;;;;;;;;;;5095442;28;20126;-74
2021/05/18 15:24:00;;;;;;;2.95;0.98;;;;;;;;;;5093677;28;20055;-75
2021/05/18 15:26:46;;;;;;;4.00;1.13;;;;;;;;;;5104325;28;20161;-77
2021/05/18 15:29:31;;;;;;;3.15;0.90;;;;;;;;;;5106063;28;20073;-78
2021/05/18 15:32:15;;;;;;;2.00;1.10;;;;;;;;;;5104773;28;20187;-78
2021/05/18 15:35:00;;;;;;;2.72;1.20;;;;;;;;;;5092485;28;20085;-77
2021/05/18 15:37:45;;;;;;;3.33;1.30;;;;;;;;;;5105005;28;20043;-77
2021/05/18 15:40:30;;;;;;;1.60;1.00;;;;;;;;;;5110001;28;20745;-77
2021/05/18 15:43:15;;;;;;;2.50;1.02;;;;;;;;;;5108777;28;20038;-77
2021/05/18 15:45:59;;;;;;;2.13;0.93;;;;;;;;;;5090181;28;20043;-77
2021/05/18 15:48:44;;;;;;;2.38;1.00;;;;;;;;;;5095201;28;20123;-77
2021/05/18 15:51:30;;;;;;;2.17;1.10;;;;;;;;;;5101941;28;20544;-78
2021/05/18 15:54:14;;;;;;;2.03;1.20;;;;;;;;;;5110465;28;20034;-77
2021/05/18 15:56:59;;;;;;;3.53;1.00;;;;;;;;;;5106867;28;20054;-76
2021/05/18 15:59:48;;;;;;;3.92;1.08;;;;;;;;;;5099336;28;20088;-75
2021/05/18 16:02:33;;;;;;;1.67;0.90;;;;;;;;;;5108141;28;20047;-75
2021/05/18 16:05:18;;;;;;;2.97;1.30;;;;;;;;;;5109902;28;20039;-76
2021/05/18 16:08:58;;;;;;;3.15;1.00;;;;;;;;;;5110209;28;20038;-75
2021/05/18 16:11:13;;;;;;;2.60;1.00;;;;;;;;;;5108649;28;20065;-75
2021/05/18 16:13:57;;;;;;;2.45;1.00;;;;;;;;;;5090149;28;20069;-75
2021/05/18 16:16:42;;;;;;;2.78;1.20;;;;;;;;;;5094054;28;20459;-75
2021/05/18 16:19:26;;;;;;;2.97;1.20;;;;;;;;;;5090551;28;20066;-75
2021/05/18 16:22:11;;;;;;;1.75;0.90;;;;;;;;;;5109494;28;20088;-75
2021/05/18 16:24:55;;;;;;;2.10;1.15;;;;;;;;;;5102230;28;20042;-75
2021/05/18 16:27:40;;;;;;;2.10;1.00;;;;;;;;;;5109720;28;20114;-74
2021/05/18 16:30:24;;;;;;;1.60;1.08;;;;;;;;;;5108524;28;20148;-75
2021/05/18 16:33:09;;;;;;;1.58;1.10;;;;;;;;;;5109425;28;20763;-75
2021/05/18 16:35:53;;;;;;;7.05;1.23;;;;;;;;;;5109655;28;20474;-74
2021/05/18 16:38:38;;;;;;;1.88;0.90;;;;;;;;;;5109778;28;20035;-74
2021/05/18 16:41:23;;;;;;;3.30;1.00;;;;;;;;;;5108761;28;20039;-74
2021/05/18 16:44:08;;;;;;;4.32;1.10;;;;;;;;;;5109832;28;20096;-76
2021/05/18 16:46:53;;;;;;;3.35;1.17;;;;;;;;;;5105168;28;20496;-75
2021/05/18 16:49:38;;;;;;;2.35;1.00;;;;;;;;;;5107666;28;20050;-75
2021/05/18 16:52:23;;;;;;;1.88;1.10;;;;;;;;;;5108682;28;20038;-76
2021/05/18 16:55:08;;;;;;;3.78;0.98;;;;;;;;;;5109224;28;20552;-75
2021/05/18 16:57:52;;;;;;;1.73;1.00;;;;;;;;;;5098483;28;20046;-75
2021/05/18 17:00:37;;;;;;;2.10;1.25;;;;;;;;;;5089047;28;20042;-75
2021/05/18 17:03:21;;;;;;;2.80;1.23;;;;;;;;;;5096640;28;20793;-75
2021/05/18 17:06:06;;;;;;;2.15;1.10;;;;;;;;;;5100944;28;20065;-74
2021/05/18 17:08:50;;;;;;;3.15;1.20;;;;;;;;;;5108189;28;20084;-75
2021/05/18 17:11:36;;;;;;;3.72;1.33;;;;;;;;;;5105142;28;20092;-75
2021/05/18 17:14:22;;;;;;;2.53;1.30;;;;;;;;;;5107870;28;20046;-76
2021/05/18 17:17:09;;;;;;;2.03;1.15;;;;;;;;;;5108030;28;20220;-75
2021/05/18 17:19:53;;;;;;;2.60;1.30;;;;;;;;;;5107683;28;20108;-76
2021/05/18 17:22:38;;;;;;;2.58;1.50;;;;;;;;;;5107164;28;20034;-77
2021/05/18 17:25:23;;;;;;;1.67;1.10;;;;;;;;;;5108993;28;20069;-76
2021/05/18 17:28:08;;;;;;;2.72;1.52;;;;;;;;;;5108098;28;20154;-75
2021/05/18 17:30:53;;;;;;;2.28;1.27;;;;;;;;;;5108322;28;20117;-75
2021/05/18 17:33:37;;;;;;;3.20;1.10;;;;;;;;;;5099777;28;20712;-75
2021/05/18 17:36:24;;;;;;;2.83;1.27;;;;;;;;;;5090045;28;20046;-75
2021/05/18 17:39:09;;;;;;;2.20;1.20;;;;;;;;;;5107420;28;20403;-75
2021/05/18 17:41:53;;;;;;;3.65;1.98;;;;;;;;;;5108729;28;20093;-75
2021/05/18 17:44:38;;;;;;;3.40;1.10;;;;;;;;;;5091530;28;20042;-75
2021/05/18 17:47:22;;;;;;;5.90;1.35;;;;;;;;;;5106505;28;20122;-75
2021/05/18 17:50:07;;;;;;;2.80;1.30;;;;;;;;;;5106098;28;20046;-75
2021/05/18 17:52:51;;;;;;;5.25;1.20;;;;;;;;;;5108094;28;20596;-75
2021/05/18 17:55:36;;;;;;;1.65;1.17;;;;;;;;;;5092620;28;20088;-75
2021/05/18 17:58:21;;;;;;;2.13;1.20;;;;;;;;;;5107984;28;20035;-75
2021/05/18 18:01:05;;;;;;;2.20;1.25;;;;;;;;;;5108167;28;20249;-75
2021/05/18 18:03:51;;;;;;;1.98;1.10;;;;;;;;;;5108270;28;20069;-76
2021/05/18 18:06:36;;;;;;;1.95;1.40;;;;;;;;;;5106340;28;20138;-75
2021/05/18 18:09:23;;;;;;;1.73;1.13;;;;;;;;;;5107419;28;20150;-75
2021/05/18 18:12:08;;;;;;;4.07;1.50;;;;;;;;;;5108108;28;20042;-75
2021/05/18 18:14:53;;;;;;;2.15;1.08;;;;;;;;;;5106638;28;20039;-75
2021/05/18 18:17:39;;;;;;;3.80;1.55;;;;;;;;;;5092173;28;20391;-75
2021/05/18 18:20:24;;;;;;;1.90;1.20;;;;;;;;;;5087072;28;20423;-75
2021/05/18 18:23:08;;;;;;;1.98;1.10;;;;;;;;;;5102388;28;20043;-75
2021/05/18 18:25:53;;;;;;;2.67;1.40;;;;;;;;;;5107856;28;20639;-75
2021/05/18 18:28:38;;;;;;;3.60;1.98;;;;;;;;;;5106845;28;20498;-75
2021/05/18 18:31:23;;;;;;;2.95;1.55;;;;;;;;;;5110711;28;20415;-76
2021/05/18 18:34:07;;;;;;;2.22;1.20;;;;;;;;;;5111366;28;20066;-76
2021/05/18 18:36:52;;;;;;;1.80;1.40;;;;;;;;;;5112413;28;20046;-76
2021/05/18 18:39:37;;;;;;;2.55;1.20;;;;;;;;;;5108725;28;20093;-76
2021/05/18 18:42:22;;;;;;;2.58;1.40;;;;;;;;;;5108553;28;20062;-76
2021/05/18 18:45:09;;;;;;;2.65;1.80;;;;;;;;;;5095745;28;20034;-77
2021/05/18 18:47:53;;;;;;;4.20;1.90;;;;;;;;;;5115739;28;20530;-76
2021/05/18 18:50:41;;;;;;;2.85;1.88;;;;;;;;;;5115468;28;20065;-76
2021/05/18 18:53:39;;;;;;;3.10;1.83;;;;;;;;;;5116945;28;20077;-76
2021/05/18 18:56:24;;;;;;;2.55;1.65;;;;;;;;;;5116219;28;20082;-76
2021/05/18 18:59:08;;;;;;;2.55;1.67;;;;;;;;;;5115248;28;20491;-76
2021/05/18 19:01:57;;;;;;;3.88;2.40;;;;;;;;;;5111816;28;20035;-76
2021/05/18 19:04:43;;;;;;;2.88;1.83;;;;;;;;;;5111561;28;20506;-76
2021/05/18 19:07:38;;;;;;;4.80;2.05;;;;;;;;;;5109163;28;20776;-77
2021/05/18 19:13:34;;;;;;;3.20;2.10;;;;;;;;;;5101286;28;20057;-77
2021/05/18 19:16:20;;;;;;;3.58;2.17;;;;;;;;;;5099042;28;20047;-76
2021/05/18 19:19:05;;;;;;;4.13;2.38;;;;;;;;;;5112613;28;20625;-77
2021/05/18 19:21:50;;;;;;;3.60;2.42;;;;;;;;;;5113473;28;20118;-76
2021/05/18 19:24:36;;;;;;;3.88;1.90;;;;;;;;;;5115346;28;20038;-77
2021/05/18 19:27:21;;;;;;;2.92;2.25;;;;;;;;;;5115745;28;20444;-78
2021/05/18 19:30:07;;;;;;;2.65;1.70;;;;;;;;;;5111809;28;20042;-74
2021/05/18 19:32:51;;;;;;;2.45;1.90;;;;;;;;;;5115336;28;20034;-76
2021/05/18 19:48:12;;;;;;;2.88;1.70;;;;;;;;;;5086104;28;20063;-76
2021/05/18 19:50:57;;;;;;;3.35;2.33;;;;;;;;;;5104364;28;20100;-75
2021/05/18 19:53:43;;;;;;;3.17;1.67;;;;;;;;;;5110484;28;20026;-75
2021/05/18 19:56:35;;;;;;;2.55;1.90;;;;;;;;;;5109683;28;20046;-75
2021/05/18 20:17:48;;;;;;;3.13;2.15;;;;;;;;;;5113216;28;20104;-76
2021/05/18 20:20:33;;;;;;;3.50;2.13;;;;;;;;;;5114025;28;20066;-75
2021/05/18 20:23:18;;;;;;;2.97;2.20;;;;;;;;;;5112084;28;20110;-76
2021/05/18 20:26:04;;;;;;;3.50;2.00;;;;;;;;;;5116748;28;20091;-76
2021/05/18 20:28:48;;;;;;;3.97;2.10;;;;;;;;;;5096765;28;20098;-76
2021/05/18 20:31:33;;;;;;;3.10;1.88;;;;;;;;;;5089160;28;20180;-76
2021/05/18 20:40:20;;;;;;;2.90;1.67;;;;;;;;;;5099361;28;20050;-76
2021/05/18 20:43:05;;;;;;;3.13;1.90;;;;;;;;;;5109685;28;20039;-76
2021/05/18 20:45:49;;;;;;;3.65;1.90;;;;;;;;;;5109366;28;20100;-76
2021/05/18 20:48:34;;;;;;;3.10;1.73;;;;;;;;;;5104523;28;20042;-75
2021/05/18 20:51:18;;;;;;;2.58;1.60;;;;;;;;;;5108340;28;20034;-76
2021/05/18 20:54:04;;;;;;;2.70;1.90;;;;;;;;;;5100519;28;20100;-76
2021/05/18 20:56:48;;;;;;;2.97;1.88;;;;;;;;;;5104268;28;20879;-76
2021/05/18 20:59:33;;;;;;;3.00;1.90;;;;;;;;;;5109015;28;20419;-77
2021/05/18 21:02:17;;;;;;;2.85;1.98;;;;;;;;;;5109058;28;20418;-77
2021/05/18 21:05:03;;;;;;;2.60;1.73;;;;;;;;;;5108701;28;20054;-77
2021/05/18 21:10:40;;;;;;;2.45;1.92;;;;;;;;;;5106603;28;20555;-77
2021/05/18 21:16:15;;;;;;;3.20;1.80;;;;;;;;;;5111727;28;20101;-76
2021/05/18 21:19:01;;;;;;;2.25;1.65;;;;;;;;;;5113210;28;20051;-76
2021/05/18 21:21:46;;;;;;;3.67;1.98;;;;;;;;;;5092124;28;20458;-76
2021/05/18 21:24:30;;;;;;;2.70;1.95;;;;;;;;;;5109829;28;20047;-77
2021/05/18 21:27:19;;;;;;;2.60;1.80;;;;;;;;;;5091020;28;20055;-76
2021/05/18 21:30:04;;;;;;;2.63;1.77;;;;;;;;;;5093579;28;20140;-78
2021/05/18 21:32:49;;;;;;;2.63;1.90;;;;;;;;;;5101802;28;20046;-76
2021/05/18 21:35:33;;;;;;;3.17;1.80;;;;;;;;;;5095070;28;20450;-76
2021/05/18 21:38:18;;;;;;;2.80;1.80;;;;;;;;;;5106946;28;20074;-75
2021/05/18 21:41:05;;;;;;;5.03;2.03;;;;;;;;;;5108446;28;20560;-75
2021/05/18 21:43:50;;;;;;;2.65;1.73;;;;;;;;;;5108341;28;20034;-76
2021/05/18 21:46:34;;;;;;;3.40;1.88;;;;;;;;;;5107049;28;20104;-75
2021/05/18 21:49:19;;;;;;;2.40;1.48;;;;;;;;;;5106871;28;20054;-76
2021/05/18 21:52:04;;;;;;;2.70;1.85;;;;;;;;;;5107875;28;20551;-75
2021/05/18 21:54:48;;;;;;;3.67;2.10;;;;;;;;;;5106966;28;20652;-76
2021/05/18 21:57:33;;;;;;;2.42;1.67;;;;;;;;;;5106497;28;20051;-77
2021/05/18 22:00:18;;;;;;;2.92;1.85;;;;;;;;;;5107766;28;20588;-76
2021/05/18 22:03:02;;;;;;;2.70;1.92;;;;;;;;;;5107912;28;20047;-76
2021/05/18 22:05:52;;;;;;;3.42;1.88;;;;;;;;;;5105951;28;20096;-76
2021/05/18 22:08:45;;;;;;;2.95;1.80;;;;;;;;;;5107815;28;20141;-76